Terminal Aerodrome Forecast
Issued by NWS

Home | Current Version | Previous Version | Graphics & Text | Print | Product List | Glossary On
Versions: 1 2 3 4 5 6 7 8 9 10 11 12 13 14 15 16 17 18
000
FTUS43 KICT 300900 AAA
TAFHUT
TAF AMD
KHUT 300900Z 3009/3106 35016G23KT P6SM OVC013
     FM301600 36013KT P6SM BKN025
     FM301900 36011KT P6SM SCT035
     FM310000 01006KT P6SM SKC=

USA.gov is the U.S. government's official web portal to all federal, state and local government web resources and services.